KPAE/PAE METAR and TAF weather

Enter ICAO airport designator
Station Type Date Time Source
KPAE METAR 2019/10/20 18:53 UTC NOAA

KPAE 201853Z 14009KT 10SM BKN032 BKN042 OVC050 09/06 A2997 RMK AO2 RAE1755B07E18 SLP151 P0000 T00890061


Station Type Date Time Source
KPAE Decoded METAR 2019/10/20 18:53 UTC NOAA

EVERETT SNOHOMISH COUNTY, WA, United States (KPAE) 47-55N 122-17W 180M
Oct 20, 2019 - 02:53 PM EDT / 2019.10.20 1853 UTC
Wind: from the SE (140 degrees) at 10 MPH (9 KT):0
Visibility: 10 mile(s):0
Sky conditions: overcast
Precipitation last hour: A trace
Temperature: 48.0 F (8.9 C)
Dew Point: 43.0 F (6.1 C)
Relative Humidity: 82%
Pressure (altimeter): 29.97 in. Hg (1014 hPa)
ob: KPAE 201853Z 14009KT 10SM BKN032 BKN042 OVC050 09/06 A2997 RMK AO2 RAE1755B07E18 SLP151 P0000 T00890061
cycle: 19

Station Type Date Time Source
KPAE TAF 2019/10/20 18:30 UTC NOAA

TAF KPAE 201728Z 2018/2118 VRB05KT 6SM -RA BKN020 OVC060
FM202000 16010KT 5SM -RA BR OVC018
FM210000 19010KT P6SM VCSH BKN020 BKN050
FM210500 20008KT P6SM OVC015
FM211300 17008KT P6SM VCSH OVC015
FM211500 16010KT 5SM -RA OVC010

Example: see airport list